sensor_id;sensor_type;location;lat;lon;timestamp;pressure;altitude;pressure_sealevel;temperature;humidity
5455;BME280;2750;49.050;9.250;2022-07-12T00:04:58;99433.25;;;20.86;77.06
5455;BME280;2750;49.050;9.250;2022-07-12T00:10:03;99436.97;;;20.73;77.60
5455;BME280;2750;49.050;9.250;2022-07-12T00:15:06;99445.13;;;20.70;77.78
5455;BME280;2750;49.050;9.250;2022-07-12T00:20:08;99438.75;;;20.83;77.26
5455;BME280;2750;49.050;9.250;2022-07-12T00:25:12;99434.56;;;20.70;77.92
5455;BME280;2750;49.050;9.250;2022-07-12T00:30:14;99440.19;;;20.65;78.01
5455;BME280;2750;49.050;9.250;2022-07-12T00:35:15;99433.81;;;20.45;78.36
5455;BME280;2750;49.050;9.250;2022-07-12T00:40:18;99433.13;;;20.20;79.84
5455;BME280;2750;49.050;9.250;2022-07-12T00:45:20;99440.53;;;20.15;78.73
5455;BME280;2750;49.050;9.250;2022-07-12T00:50:23;99434.72;;;19.98;80.47
5455;BME280;2750;49.050;9.250;2022-07-12T00:55:26;99439.97;;;19.64;81.88
5455;BME280;2750;49.050;9.250;2022-07-12T01:00:28;99437.03;;;19.55;81.10
5455;BME280;2750;49.050;9.250;2022-07-12T01:05:30;99435.91;;;19.71;79.58
5455;BME280;2750;49.050;9.250;2022-07-12T01:10:33;99432.91;;;19.88;80.47
5455;BME280;2750;49.050;9.250;2022-07-12T01:15:37;99437.31;;;19.87;80.23
5455;BME280;2750;49.050;9.250;2022-07-12T01:20:38;99431.50;;;19.71;80.15
5455;BME280;2750;49.050;9.250;2022-07-12T01:25:42;99438.34;;;19.37;80.97
5455;BME280;2750;49.050;9.250;2022-07-12T01:30:43;99439.22;;;19.25;79.79
5455;BME280;2750;49.050;9.250;2022-07-12T01:35:45;99447.66;;;19.05;80.98
5455;BME280;2750;49.050;9.250;2022-07-12T01:40:49;99446.50;;;19.09;83.32
5455;BME280;2750;49.050;9.250;2022-07-12T01:45:50;99448.97;;;18.87;82.27
5455;BME280;2750;49.050;9.250;2022-07-12T01:50:52;99443.63;;;19.25;82.19
5455;BME280;2750;49.050;9.250;2022-07-12T01:55:55;99446.31;;;19.12;81.61
5455;BME280;2750;49.050;9.250;2022-07-12T02:00:57;99437.03;;;19.19;82.06
5455;BME280;2750;49.050;9.250;2022-07-12T02:05:58;99436.91;;;19.21;82.13
5455;BME280;2750;49.050;9.250;2022-07-12T02:11:01;99438.53;;;19.10;82.17
5455;BME280;2750;49.050;9.250;2022-07-12T02:16:03;99438.75;;;18.95;82.36
5455;BME280;2750;49.050;9.250;2022-07-12T02:21:05;99444.13;;;18.55;82.39
5455;BME280;2750;49.050;9.250;2022-07-12T02:26:08;99442.94;;;18.22;84.01
5455;BME280;2750;49.050;9.250;2022-07-12T02:31:09;99437.25;;;18.15;84.10
5455;BME280;2750;49.050;9.250;2022-07-12T02:36:11;99435.97;;;18.08;84.85
5455;BME280;2750;49.050;9.250;2022-07-12T02:41:14;99450.50;;;17.87;84.49
5455;BME280;2750;49.050;9.250;2022-07-12T02:46:15;99450.66;;;17.98;85.64
5455;BME280;2750;49.050;9.250;2022-07-12T02:51:17;99438.19;;;18.01;86.07
5455;BME280;2750;49.050;9.250;2022-07-12T02:56:20;99442.59;;;18.01;85.41
5455;BME280;2750;49.050;9.250;2022-07-12T03:01:21;99446.47;;;18.08;84.87
5455;BME280;2750;49.050;9.250;2022-07-12T03:06:23;99442.34;;;17.91;84.83
5455;BME280;2750;49.050;9.250;2022-07-12T03:11:26;99449.59;;;17.61;86.45
5455;BME280;2750;49.050;9.250;2022-07-12T03:16:27;99448.75;;;17.46;86.66
5455;BME280;2750;49.050;9.250;2022-07-12T03:21:29;99464.88;;;17.40;87.06
5455;BME280;2750;49.050;9.250;2022-07-12T03:26:32;99461.06;;;17.32;88.05
5455;BME280;2750;49.050;9.250;2022-07-12T03:31:33;99471.94;;;17.40;86.42
5455;BME280;2750;49.050;9.250;2022-07-12T03:36:35;99474.06;;;17.33;86.76
5455;BME280;2750;49.050;9.250;2022-07-12T03:41:37;99477.66;;;17.18;86.55
5455;BME280;2750;49.050;9.250;2022-07-12T03:46:39;99471.53;;;17.87;85.89
5455;BME280;2750;49.050;9.250;2022-07-12T03:51:40;99478.41;;;18.67;81.66
5455;BME280;2750;49.050;9.250;2022-07-12T03:56:43;99493.78;;;18.98;80.79
5455;BME280;2750;49.050;9.250;2022-07-12T04:02:05;99492.31;;;19.06;81.07
5455;BME280;2750;49.050;9.250;2022-07-12T04:07:06;99496.72;;;19.19;80.56
5455;BME280;2750;49.050;9.250;2022-07-12T04:12:10;99496.81;;;19.42;79.91
5455;BME280;2750;49.050;9.250;2022-07-12T04:17:11;99495.13;;;21.05;76.11
5455;BME280;2750;49.050;9.250;2022-07-12T04:22:12;99477.09;;;23.12;70.97
5455;BME280;2750;49.050;9.250;2022-07-12T04:27:15;99481.75;;;24.84;66.82
5455;BME280;2750;49.050;9.250;2022-07-12T04:32:17;99484.97;;;24.68;64.64
5455;BME280;2750;49.050;9.250;2022-07-12T04:37:18;99487.69;;;25.69;62.56
5455;BME280;2750;49.050;9.250;2022-07-12T04:42:21;99486.34;;;27.81;59.27
5455;BME280;2750;49.050;9.250;2022-07-12T04:47:22;99480.91;;;28.80;56.61
5455;BME280;2750;49.050;9.250;2022-07-12T04:52:24;99484.25;;;29.37;55.21
5455;BME280;2750;49.050;9.250;2022-07-12T04:57:27;99483.06;;;28.60;55.96
5455;BME280;2750;49.050;9.250;2022-07-12T05:02:28;99483.59;;;28.47;56.59
5455;BME280;2750;49.050;9.250;2022-07-12T05:07:30;99492.75;;;29.79;54.39
5455;BME280;2750;49.050;9.250;2022-07-12T05:12:34;99490.97;;;30.86;52.79
5455;BME280;2750;49.050;9.250;2022-07-12T05:17:35;99492.09;;;31.86;51.85
5455;BME280;2750;49.050;9.250;2022-07-12T05:22:37;99493.03;;;33.12;49.45
5455;BME280;2750;49.050;9.250;2022-07-12T05:27:39;99506.97;;;32.88;49.20
5455;BME280;2750;49.050;9.250;2022-07-12T05:32:41;99499.59;;;33.85;48.47
5455;BME280;2750;49.050;9.250;2022-07-12T05:37:42;99489.78;;;34.25;48.17
5455;BME280;2750;49.050;9.250;2022-07-12T05:42:45;99499.16;;;34.88;47.51
5455;BME280;2750;49.050;9.250;2022-07-12T05:47:47;99493.44;;;36.24;46.03
5455;BME280;2750;49.050;9.250;2022-07-12T05:52:48;99499.03;;;36.54;45.62
5455;BME280;2750;49.050;9.250;2022-07-12T05:58:09;99500.03;;;35.53;45.76
5455;BME280;2750;49.050;9.250;2022-07-12T06:03:10;99502.63;;;33.21;48.95
5455;BME280;2750;49.050;9.250;2022-07-12T06:08:13;99505.25;;;33.42;48.55
5455;BME280;2750;49.050;9.250;2022-07-12T06:13:16;99513.44;;;32.51;49.05
5455;BME280;2750;49.050;9.250;2022-07-12T06:18:17;99513.44;;;34.29;47.73
5455;BME280;2750;49.050;9.250;2022-07-12T06:23:19;99523.84;;;32.11;50.01
5455;BME280;2750;49.050;9.250;2022-07-12T06:28:22;99514.78;;;33.51;48.81
5455;BME280;2750;49.050;9.250;2022-07-12T06:33:23;99512.72;;;33.94;48.07
5455;BME280;2750;49.050;9.250;2022-07-12T06:38:25;99511.22;;;35.63;45.96
5455;BME280;2750;49.050;9.250;2022-07-12T06:43:28;99519.31;;;37.56;43.55
5455;BME280;2750;49.050;9.250;2022-07-12T06:48:29;99523.66;;;37.39;43.68
5455;BME280;2750;49.050;9.250;2022-07-12T06:53:30;99522.13;;;37.97;43.07
5455;BME280;2750;49.050;9.250;2022-07-12T06:58:33;99524.75;;;36.70;44.13
5455;BME280;2750;49.050;9.250;2022-07-12T07:03:35;99533.59;;;35.76;44.19
5455;BME280;2750;49.050;9.250;2022-07-12T07:08:36;99537.09;;;35.32;45.10
5455;BME280;2750;49.050;9.250;2022-07-12T07:13:39;99541.47;;;34.41;46.13
5455;BME280;2750;49.050;9.250;2022-07-12T07:18:40;99534.53;;;35.57;45.08
5455;BME280;2750;49.050;9.250;2022-07-12T07:23:42;99550.28;;;31.78;49.50
5455;BME280;2750;49.050;9.250;2022-07-12T07:28:45;99551.78;;;31.08;50.60
5455;BME280;2750;49.050;9.250;2022-07-12T07:34:04;99549.00;;;31.74;50.14
5455;BME280;2750;49.050;9.250;2022-07-12T07:39:06;99546.88;;;31.85;50.48
5455;BME280;2750;49.050;9.250;2022-07-12T07:44:08;99545.06;;;30.21;52.98
5455;BME280;2750;49.050;9.250;2022-07-12T07:49:10;99555.84;;;28.22;55.11
5455;BME280;2750;49.050;9.250;2022-07-12T07:54:11;99550.63;;;26.59;57.71
5455;BME280;2750;49.050;9.250;2022-07-12T07:59:14;99543.13;;;26.80;56.61
5455;BME280;2750;49.050;9.250;2022-07-12T08:04:16;99541.44;;;24.90;60.41
5455;BME280;2750;49.050;9.250;2022-07-12T08:09:18;99543.31;;;27.30;55.40
5455;BME280;2750;49.050;9.250;2022-07-12T08:14:21;99540.88;;;26.85;56.51
5455;BME280;2750;49.050;9.250;2022-07-12T08:19:22;99536.78;;;27.25;56.72
5455;BME280;2750;49.050;9.250;2022-07-12T08:24:24;99536.06;;;27.82;54.71
5455;BME280;2750;49.050;9.250;2022-07-12T08:29:27;99530.19;;;30.64;50.63
5455;BME280;2750;49.050;9.250;2022-07-12T08:34:29;99537.44;;;30.32;50.33
5455;BME280;2750;49.050;9.250;2022-07-12T08:39:30;99554.38;;;27.77;54.14
5455;BME280;2750;49.050;9.250;2022-07-12T08:44:33;99556.53;;;27.06;55.48
5455;BME280;2750;49.050;9.250;2022-07-12T08:49:35;99561.28;;;26.94;55.34
5455;BME280;2750;49.050;9.250;2022-07-12T08:54:39;99567.16;;;26.62;56.83
5455;BME280;2750;49.050;9.250;2022-07-12T08:59:47;99571.19;;;27.36;56.68
5455;BME280;2750;49.050;9.250;2022-07-12T09:05:05;99573.75;;;25.78;58.29
5455;BME280;2750;49.050;9.250;2022-07-12T09:10:08;99581.97;;;24.72;61.95
5455;BME280;2750;49.050;9.250;2022-07-12T09:15:14;99572.13;;;25.11;61.31
5455;BME280;2750;49.050;9.250;2022-07-12T09:20:16;99570.50;;;25.10;62.08
5455;BME280;2750;49.050;9.250;2022-07-12T09:25:17;99574.25;;;25.64;60.56
5455;BME280;2750;49.050;9.250;2022-07-12T09:30:21;99575.34;;;25.61;60.93
5455;BME280;2750;49.050;9.250;2022-07-12T09:35:23;99563.59;;;26.36;58.97
5455;BME280;2750;49.050;9.250;2022-07-12T09:40:42;99566.09;;;26.10;59.54
5455;BME280;2750;49.050;9.250;2022-07-12T09:45:46;99557.91;;;26.92;57.71
5455;BME280;2750;49.050;9.250;2022-07-12T09:50:49;99573.50;;;26.16;59.99
5455;BME280;2750;49.050;9.250;2022-07-12T09:55:51;99579.84;;;26.69;57.53
5455;BME280;2750;49.050;9.250;2022-07-12T10:00:55;99570.72;;;27.40;57.21
5455;BME280;2750;49.050;9.250;2022-07-12T10:06:01;99582.91;;;26.56;55.71
5455;BME280;2750;49.050;9.250;2022-07-12T10:11:03;99577.91;;;26.08;57.14
5455;BME280;2750;49.050;9.250;2022-07-12T10:16:08;99574.59;;;27.20;54.84
5455;BME280;2750;49.050;9.250;2022-07-12T10:21:20;99568.25;;;28.39;53.38
5455;BME280;2750;49.050;9.250;2022-07-12T10:26:36;99563.91;;;29.11;53.05
5455;BME280;2750;49.050;9.250;2022-07-12T10:31:43;99567.50;;;27.37;55.57
5455;BME280;2750;49.050;9.250;2022-07-12T10:37:19;99550.88;;;27.43;56.09
5455;BME280;2750;49.050;9.250;2022-07-12T10:42:21;99550.34;;;27.05;57.11
5455;BME280;2750;49.050;9.250;2022-07-12T10:47:23;99546.84;;;27.73;54.98
5455;BME280;2750;49.050;9.250;2022-07-12T10:52:26;99541.19;;;28.90;53.49
5455;BME280;2750;49.050;9.250;2022-07-12T10:57:38;99539.00;;;29.65;51.78
5455;BME280;2750;49.050;9.250;2022-07-12T11:02:41;99539.69;;;28.56;53.21
5455;BME280;2750;49.050;9.250;2022-07-12T11:07:43;99545.06;;;27.81;54.51
5455;BME280;2750;49.050;9.250;2022-07-12T11:12:46;99539.72;;;28.47;53.40
5455;BME280;2750;49.050;9.250;2022-07-12T11:17:48;99540.84;;;28.21;53.49
5455;BME280;2750;49.050;9.250;2022-07-12T11:22:50;99546.84;;;28.15;53.17
5455;BME280;2750;49.050;9.250;2022-07-12T11:27:53;99546.59;;;28.82;52.47
5455;BME280;2750;49.050;9.250;2022-07-12T11:32:56;99541.00;;;28.19;53.18
5455;BME280;2750;49.050;9.250;2022-07-12T11:37:57;99538.72;;;28.81;52.50
5455;BME280;2750;49.050;9.250;2022-07-12T11:43:00;99533.97;;;29.23;50.82
5455;BME280;2750;49.050;9.250;2022-07-12T11:48:04;99536.19;;;28.31;53.16
5455;BME280;2750;49.050;9.250;2022-07-12T11:53:06;99536.50;;;27.36;55.95
5455;BME280;2750;49.050;9.250;2022-07-12T11:58:16;99530.41;;;27.85;53.75
5455;BME280;2750;49.050;9.250;2022-07-12T12:03:20;99515.47;;;28.65;53.05
5455;BME280;2750;49.050;9.250;2022-07-12T12:08:23;99514.66;;;29.44;51.71
5455;BME280;2750;49.050;9.250;2022-07-12T12:13:27;99519.63;;;28.11;53.01
5455;BME280;2750;49.050;9.250;2022-07-12T12:18:32;99519.00;;;27.75;53.01
5455;BME280;2750;49.050;9.250;2022-07-12T12:23:36;99505.38;;;29.32;51.32
5455;BME280;2750;49.050;9.250;2022-07-12T12:28:46;99504.13;;;28.79;52.62
5455;BME280;2750;49.050;9.250;2022-07-12T12:33:51;99501.28;;;28.40;52.86
5455;BME280;2750;49.050;9.250;2022-07-12T12:38:55;99492.00;;;29.24;51.90
5455;BME280;2750;49.050;9.250;2022-07-12T12:43:58;99504.94;;;28.96;51.14
5455;BME280;2750;49.050;9.250;2022-07-12T12:49:01;99485.25;;;30.06;50.14
5455;BME280;2750;49.050;9.250;2022-07-12T12:54:02;99466.13;;;30.54;49.84
5455;BME280;2750;49.050;9.250;2022-07-12T12:59:04;99465.41;;;30.60;49.14
5455;BME280;2750;49.050;9.250;2022-07-12T13:04:09;99467.28;;;30.14;49.66
5455;BME280;2750;49.050;9.250;2022-07-12T13:09:11;99476.72;;;30.25;50.04
5455;BME280;2750;49.050;9.250;2022-07-12T13:14:12;99475.09;;;30.61;49.87
5455;BME280;2750;49.050;9.250;2022-07-12T13:19:15;99482.31;;;29.15;52.18
5455;BME280;2750;49.050;9.250;2022-07-12T13:24:16;99475.31;;;29.92;50.42
5455;BME280;2750;49.050;9.250;2022-07-12T13:29:18;99474.09;;;30.17;49.79
5455;BME280;2750;49.050;9.250;2022-07-12T13:34:21;99478.25;;;30.05;49.87
5455;BME280;2750;49.050;9.250;2022-07-12T13:39:22;99483.13;;;30.99;48.22
5455;BME280;2750;49.050;9.250;2022-07-12T13:44:42;99490.84;;;30.42;48.79
5455;BME280;2750;49.050;9.250;2022-07-12T13:49:45;99481.56;;;30.67;48.17
5455;BME280;2750;49.050;9.250;2022-07-12T13:54:46;99479.72;;;32.48;46.52
5455;BME280;2750;49.050;9.250;2022-07-12T13:59:48;99477.69;;;34.01;44.40
5455;BME280;2750;49.050;9.250;2022-07-12T14:04:51;99470.78;;;35.81;43.42
5455;BME280;2750;49.050;9.250;2022-07-12T14:09:53;99467.03;;;37.67;41.75
5455;BME280;2750;49.050;9.250;2022-07-12T14:14:55;99472.56;;;36.31;42.05
5455;BME280;2750;49.050;9.250;2022-07-12T14:20:17;99458.06;;;32.56;45.21
5455;BME280;2750;49.050;9.250;2022-07-12T14:25:19;99444.91;;;32.96;45.58
5455;BME280;2750;49.050;9.250;2022-07-12T14:30:20;99452.41;;;33.35;45.59
5455;BME280;2750;49.050;9.250;2022-07-12T14:35:23;99448.03;;;32.65;45.58
5455;BME280;2750;49.050;9.250;2022-07-12T14:40:25;99449.09;;;34.00;43.88
5455;BME280;2750;49.050;9.250;2022-07-12T14:45:26;99453.13;;;36.16;42.37
5455;BME280;2750;49.050;9.250;2022-07-12T14:50:29;99444.13;;;34.82;43.01
5455;BME280;2750;49.050;9.250;2022-07-12T14:55:30;99447.41;;;35.62;42.00
5455;BME280;2750;49.050;9.250;2022-07-12T15:00:32;99447.03;;;37.31;40.55
5455;BME280;2750;49.050;9.250;2022-07-12T15:05:35;99430.00;;;36.45;40.53
5455;BME280;2750;49.050;9.250;2022-07-12T15:10:36;99425.03;;;35.86;41.06
5455;BME280;2750;49.050;9.250;2022-07-12T15:15:38;99426.72;;;34.26;42.79
5455;BME280;2750;49.050;9.250;2022-07-12T15:20:41;99415.09;;;35.80;41.31
5455;BME280;2750;49.050;9.250;2022-07-12T15:25:43;99412.88;;;36.76;40.22
5455;BME280;2750;49.050;9.250;2022-07-12T15:30:44;99415.94;;;38.93;38.53
5455;BME280;2750;49.050;9.250;2022-07-12T15:35:47;99418.13;;;36.71;40.55
5455;BME280;2750;49.050;9.250;2022-07-12T15:40:49;99406.69;;;35.88;41.14
5455;BME280;2750;49.050;9.250;2022-07-12T15:46:16;99401.13;;;36.64;40.67
5455;BME280;2750;49.050;9.250;2022-07-12T15:51:18;99400.78;;;38.04;38.43
5455;BME280;2750;49.050;9.250;2022-07-12T15:56:19;99406.00;;;36.92;39.35
5455;BME280;2750;49.050;9.250;2022-07-12T16:01:22;99392.59;;;37.51;38.60
5455;BME280;2750;49.050;9.250;2022-07-12T16:06:23;99394.41;;;37.39;38.94
5455;BME280;2750;49.050;9.250;2022-07-12T16:11:25;99400.03;;;36.22;39.70
5455;BME280;2750;49.050;9.250;2022-07-12T16:16:28;99389.84;;;37.03;39.28
5455;BME280;2750;49.050;9.250;2022-07-12T16:21:29;99389.25;;;36.40;39.38
5455;BME280;2750;49.050;9.250;2022-07-12T16:26:31;99375.25;;;36.43;38.81
5455;BME280;2750;49.050;9.250;2022-07-12T16:31:34;99378.31;;;37.86;38.39
5455;BME280;2750;49.050;9.250;2022-07-12T16:36:35;99379.25;;;38.56;37.99
5455;BME280;2750;49.050;9.250;2022-07-12T16:41:37;99386.09;;;37.04;39.60
5455;BME280;2750;49.050;9.250;2022-07-12T16:46:40;99389.25;;;36.15;39.74
5455;BME280;2750;49.050;9.250;2022-07-12T16:51:41;99377.50;;;37.25;39.54
5455;BME280;2750;49.050;9.250;2022-07-12T16:56:43;99365.88;;;38.19;38.38
5455;BME280;2750;49.050;9.250;2022-07-12T17:01:46;99386.88;;;39.90;36.63
5455;BME280;2750;49.050;9.250;2022-07-12T17:06:47;99380.84;;;40.93;36.82
5455;BME280;2750;49.050;9.250;2022-07-12T17:11:49;99378.75;;;40.24;36.69
5455;BME280;2750;49.050;9.250;2022-07-12T17:16:52;99382.25;;;39.91;37.25
5455;BME280;2750;49.050;9.250;2022-07-12T17:21:54;99393.38;;;38.81;37.90
5455;BME280;2750;49.050;9.250;2022-07-12T17:26:55;99386.19;;;38.75;38.15
5455;BME280;2750;49.050;9.250;2022-07-12T17:31:58;99379.09;;;39.26;38.10
5455;BME280;2750;49.050;9.250;2022-07-12T17:36:59;99388.59;;;39.51;37.79
5455;BME280;2750;49.050;9.250;2022-07-12T17:42:01;99384.44;;;39.32;37.53
5455;BME280;2750;49.050;9.250;2022-07-12T17:47:04;99371.84;;;39.88;37.49
5455;BME280;2750;49.050;9.250;2022-07-12T17:52:05;99371.78;;;39.54;38.54
5455;BME280;2750;49.050;9.250;2022-07-12T17:57:07;99380.34;;;39.46;37.86
5455;BME280;2750;49.050;9.250;2022-07-12T18:02:09;99368.19;;;39.09;38.30
5455;BME280;2750;49.050;9.250;2022-07-12T18:07:11;99365.28;;;38.87;40.22
5455;BME280;2750;49.050;9.250;2022-07-12T18:12:12;99374.53;;;39.14;41.48
5455;BME280;2750;49.050;9.250;2022-07-12T18:17:33;99372.13;;;38.78;41.66
5455;BME280;2750;49.050;9.250;2022-07-12T18:22:52;99387.47;;;38.26;43.11
5455;BME280;2750;49.050;9.250;2022-07-12T18:27:53;99378.72;;;38.01;43.06
5455;BME280;2750;49.050;9.250;2022-07-12T18:32:57;99387.50;;;35.96;44.78
5455;BME280;2750;49.050;9.250;2022-07-12T18:37:59;99381.25;;;34.55;46.18
5455;BME280;2750;49.050;9.250;2022-07-12T18:43:01;99384.41;;;34.46;47.19
5455;BME280;2750;49.050;9.250;2022-07-12T18:48:05;99389.31;;;33.70;48.50
5455;BME280;2750;49.050;9.250;2022-07-12T18:53:07;99387.19;;;32.36;50.28
5455;BME280;2750;49.050;9.250;2022-07-12T18:58:08;99382.03;;;33.10;49.72
5455;BME280;2750;49.050;9.250;2022-07-12T19:03:11;99377.06;;;32.38;50.96
5455;BME280;2750;49.050;9.250;2022-07-12T19:08:13;99384.44;;;31.45;53.30
5455;BME280;2750;49.050;9.250;2022-07-12T19:13:14;99380.69;;;29.99;55.82
5455;BME280;2750;49.050;9.250;2022-07-12T19:18:17;99388.69;;;28.68;57.97
5455;BME280;2750;49.050;9.250;2022-07-12T19:23:19;99399.75;;;27.51;57.82
5455;BME280;2750;49.050;9.250;2022-07-12T19:28:20;99400.03;;;26.98;59.12
5455;BME280;2750;49.050;9.250;2022-07-12T19:33:23;99400.06;;;27.06;59.75
5455;BME280;2750;49.050;9.250;2022-07-12T19:38:25;99407.72;;;26.76;60.83
5455;BME280;2750;49.050;9.250;2022-07-12T19:43:26;99415.69;;;26.06;61.19
5455;BME280;2750;49.050;9.250;2022-07-12T19:48:30;99423.19;;;25.85;60.92
5455;BME280;2750;49.050;9.250;2022-07-12T19:53:32;99441.41;;;25.80;61.37
5455;BME280;2750;49.050;9.250;2022-07-12T19:58:33;99453.94;;;25.52;62.78
5455;BME280;2750;49.050;9.250;2022-07-12T20:03:36;99438.53;;;25.56;63.11
5455;BME280;2750;49.050;9.250;2022-07-12T20:08:38;99449.44;;;25.26;63.87
5455;BME280;2750;49.050;9.250;2022-07-12T20:13:39;99453.47;;;25.02;63.52
5455;BME280;2750;49.050;9.250;2022-07-12T20:18:42;99457.91;;;24.46;64.31
5455;BME280;2750;49.050;9.250;2022-07-12T20:23:44;99464.34;;;24.53;64.45
5455;BME280;2750;49.050;9.250;2022-07-12T20:28:45;99455.41;;;24.35;64.69
5455;BME280;2750;49.050;9.250;2022-07-12T20:33:48;99469.94;;;24.31;64.68
5455;BME280;2750;49.050;9.250;2022-07-12T20:39:07;99470.22;;;24.08;65.98
5455;BME280;2750;49.050;9.250;2022-07-12T20:44:08;99472.72;;;23.91;65.36
5455;BME280;2750;49.050;9.250;2022-07-12T20:49:12;99463.44;;;23.47;65.32
5455;BME280;2750;49.050;9.250;2022-07-12T20:54:17;99468.97;;;23.34;64.90
5455;BME280;2750;49.050;9.250;2022-07-12T20:59:20;99461.06;;;23.44;64.63
5455;BME280;2750;49.050;9.250;2022-07-12T21:04:22;99472.97;;;23.28;65.81
5455;BME280;2750;49.050;9.250;2022-07-12T21:09:24;99463.19;;;23.19;66.26
5455;BME280;2750;49.050;9.250;2022-07-12T21:14:25;99465.81;;;23.19;66.08
5455;BME280;2750;49.050;9.250;2022-07-12T21:19:28;99466.56;;;22.91;66.18
5455;BME280;2750;49.050;9.250;2022-07-12T21:24:30;99470.06;;;22.71;67.16
5455;BME280;2750;49.050;9.250;2022-07-12T21:29:31;99474.53;;;22.50;69.02
5455;BME280;2750;49.050;9.250;2022-07-12T21:34:34;99468.50;;;22.48;69.25
5455;BME280;2750;49.050;9.250;2022-07-12T21:39:36;99472.69;;;22.50;69.40
5455;BME280;2750;49.050;9.250;2022-07-12T21:44:37;99475.34;;;22.29;69.71
5455;BME280;2750;49.050;9.250;2022-07-12T21:49:41;99476.19;;;21.98;71.38
5455;BME280;2750;49.050;9.250;2022-07-12T21:54:42;99476.69;;;21.81;72.31
5455;BME280;2750;49.050;9.250;2022-07-12T21:59:44;99479.19;;;22.05;71.04
5455;BME280;2750;49.050;9.250;2022-07-12T22:04:47;99472.25;;;21.92;71.48
5455;BME280;2750;49.050;9.250;2022-07-12T22:09:49;99473.34;;;21.79;70.64
5455;BME280;2750;49.050;9.250;2022-07-12T22:14:50;99479.50;;;21.68;71.03
5455;BME280;2750;49.050;9.250;2022-07-12T22:19:53;99483.31;;;21.21;72.40
5455;BME280;2750;49.050;9.250;2022-07-12T22:24:54;99480.56;;;21.23;72.11
5455;BME280;2750;49.050;9.250;2022-07-12T22:29:57;99492.91;;;21.22;72.22
5455;BME280;2750;49.050;9.250;2022-07-12T22:34:59;99487.88;;;21.30;72.09
5455;BME280;2750;49.050;9.250;2022-07-12T22:40:01;99487.81;;;20.97;73.93
5455;BME280;2750;49.050;9.250;2022-07-12T22:45:03;99495.63;;;21.10;73.09
5455;BME280;2750;49.050;9.250;2022-07-12T22:50:07;99502.34;;;20.91;73.33
5455;BME280;2750;49.050;9.250;2022-07-12T22:55:08;99489.50;;;20.98;73.25
5455;BME280;2750;49.050;9.250;2022-07-12T23:00:11;99492.25;;;20.85;73.36
5455;BME280;2750;49.050;9.250;2022-07-12T23:05:14;99481.34;;;20.90;73.18
5455;BME280;2750;49.050;9.250;2022-07-12T23:10:17;99490.22;;;20.89;72.98
5455;BME280;2750;49.050;9.250;2022-07-12T23:15:18;99485.16;;;20.75;73.22
5455;BME280;2750;49.050;9.250;2022-07-12T23:20:21;99498.66;;;20.24;75.99
5455;BME280;2750;49.050;9.250;2022-07-12T23:25:23;99495.38;;;20.10;76.87
5455;BME280;2750;49.050;9.250;2022-07-12T23:30:24;99491.94;;;20.20;76.29
5455;BME280;2750;49.050;9.250;2022-07-12T23:35:27;99491.78;;;20.11;77.12
5455;BME280;2750;49.050;9.250;2022-07-12T23:40:29;99494.88;;;20.28;75.56
5455;BME280;2750;49.050;9.250;2022-07-12T23:45:30;99487.88;;;19.92;77.20
5455;BME280;2750;49.050;9.250;2022-07-12T23:50:33;99494.38;;;19.99;77.36
5455;BME280;2750;49.050;9.250;2022-07-12T23:55:35;99486.25;;;19.79;77.55
